createdAt,value
2023-12-02T00:02:21.336Z,97570.09
2023-12-02T00:05:25.004Z,97566.47
2023-12-02T00:08:28.893Z,97569.09
2023-12-02T00:11:32.551Z,97564.94
2023-12-02T00:14:36.484Z,97563.78
2023-12-02T00:17:41.430Z,97560.31
2023-12-02T00:20:45.435Z,97548.91
2023-12-02T00:23:49.101Z,97551.38
2023-12-02T00:26:53.033Z,97546.94
2023-12-02T00:29:56.525Z,97537.34
2023-12-02T00:33:02.283Z,97555.19
2023-12-02T00:36:07.308Z,97580.94
2023-12-02T00:39:11.549Z,97586.56
2023-12-02T00:42:15.305Z,97594.69
2023-12-02T00:45:19.500Z,97580.66
2023-12-02T00:48:24.525Z,97593.88
2023-12-02T00:51:28.653Z,97588.59
2023-12-02T00:54:35.494Z,97600.97
2023-12-02T00:57:39.821Z,97579.00
2023-12-02T01:00:43.332Z,97563.16
2023-12-02T01:03:48.566Z,97549.94
2023-12-02T01:06:52.065Z,97544.00
2023-12-02T01:09:55.870Z,97538.25
2023-12-02T01:12:59.304Z,97541.06
2023-12-02T01:16:03.137Z,97526.84
2023-12-02T01:19:08.071Z,97554.91
2023-12-02T01:22:12.269Z,97554.91
2023-12-02T01:25:15.898Z,97555.56
2023-12-02T01:28:19.920Z,97530.47
2023-12-02T01:31:23.513Z,97527.66
2023-12-02T01:34:29.059Z,97523.81
2023-12-02T01:37:32.690Z,97522.81
2023-12-02T01:40:36.735Z,97514.91
2023-12-02T01:43:40.453Z,97531.75
2023-12-02T01:46:44.417Z,97541.50
2023-12-02T01:49:51.113Z,97546.78
2023-12-02T01:52:55.105Z,97523.00
2023-12-02T01:55:58.893Z,97491.78
2023-12-02T01:59:03.781Z,97500.69
2023-12-02T02:02:09.192Z,97491.78
2023-12-02T02:05:14.570Z,97498.38
2023-12-02T02:08:18.112Z,97505.97
2023-12-02T02:11:22.329Z,97511.03
2023-12-02T02:14:26.123Z,97520.44
2023-12-02T02:17:30.625Z,97519.44
2023-12-02T02:20:36.161Z,97536.31
2023-12-02T02:23:41.912Z,97525.28
2023-12-02T02:26:46.019Z,97526.28
2023-12-02T02:29:50.578Z,97525.91
2023-12-02T02:32:54.488Z,97518.81
2023-12-02T02:35:59.052Z,97511.88
2023-12-02T02:39:05.250Z,97528.72
2023-12-02T02:42:10.315Z,97522.81
2023-12-02T02:45:14.383Z,97541.63
2023-12-02T02:48:18.973Z,97534.88
2023-12-02T02:51:23.389Z,97542.97
2023-12-02T02:54:29.406Z,97550.25
2023-12-02T02:57:33.528Z,97544.31
2023-12-02T03:00:37.872Z,97539.84
2023-12-02T03:03:42.184Z,97522.38
2023-12-02T03:06:46.692Z,97520.91
2023-12-02T03:09:52.002Z,97543.03
2023-12-02T03:12:56.453Z,97527.34
2023-12-02T03:16:00.465Z,97520.56
2023-12-02T03:19:05.056Z,97498.97
2023-12-02T03:22:09.107Z,97501.16
2023-12-02T03:25:15.036Z,97519.16
2023-12-02T03:28:19.027Z,97527.88
2023-12-02T03:31:23.561Z,97520.63
2023-12-02T03:34:27.625Z,97530.38
2023-12-02T03:37:32.510Z,97513.69
2023-12-02T03:40:38.106Z,97503.13
2023-12-02T03:43:51.887Z,97494.22
2023-12-02T03:47:04.783Z,97501.31
2023-12-02T03:50:10.449Z,97490.59
2023-12-02T03:53:14.223Z,97503.47
2023-12-02T03:56:20.122Z,97508.75
2023-12-02T03:59:24.220Z,97517.66
2023-12-02T04:02:28.984Z,97519.66
2023-12-02T04:05:33.100Z,97519.31
2023-12-02T04:08:37.358Z,97518.97
2023-12-02T04:11:42.914Z,97508.41
2023-12-02T04:14:47.301Z,97508.41
2023-12-02T04:17:51.662Z,97511.06
2023-12-02T04:20:56.089Z,97494.38
2023-12-02T04:24:00.370Z,97486.78
2023-12-02T04:27:06.802Z,97486.31
2023-12-02T04:30:11.909Z,97473.47
2023-12-02T04:33:16.475Z,97476.75
2023-12-02T04:36:21.170Z,97471.63
2023-12-02T04:39:26.682Z,97459.44
2023-12-02T04:42:32.231Z,97461.44
2023-12-02T04:45:37.034Z,97475.63
2023-12-02T04:48:41.022Z,97479.25
2023-12-02T04:51:45.332Z,97476.47
2023-12-02T04:54:49.185Z,97482.19
2023-12-02T04:57:55.085Z,97482.03
2023-12-02T05:00:59.000Z,97483.00
2023-12-02T05:04:04.248Z,97499.69
2023-12-02T05:07:08.235Z,97484.84
2023-12-02T05:10:12.663Z,97474.09
2023-12-02T05:13:18.289Z,97488.28
2023-12-02T05:16:22.494Z,97464.38
2023-12-02T05:19:26.586Z,97469.19
2023-12-02T05:22:30.959Z,97470.34
2023-12-02T05:25:35.317Z,97460.94
2023-12-02T05:28:41.331Z,97454.03
2023-12-02T05:31:45.624Z,97447.09
2023-12-02T05:34:49.708Z,97439.34
2023-12-02T05:37:53.748Z,97441.31
2023-12-02T05:40:58.415Z,97433.78
2023-12-02T05:44:03.815Z,97435.94
2023-12-02T05:47:08.097Z,97415.81
2023-12-02T05:50:12.467Z,97416.31
2023-12-02T05:53:19.185Z,97451.00
2023-12-02T05:56:23.348Z,97464.19
2023-12-02T05:59:29.249Z,97463.47
2023-12-02T06:02:33.434Z,97438.41
2023-12-02T06:05:37.952Z,97443.34
2023-12-02T06:08:41.965Z,97452.72
2023-12-02T06:11:46.189Z,97438.34
2023-12-02T06:14:51.640Z,97424.81
2023-12-02T06:17:57.924Z,97418.72
2023-12-02T06:21:02.142Z,97450.72
2023-12-02T06:24:07.297Z,97453.38
2023-12-02T06:27:11.007Z,97447.25
2023-12-02T06:30:18.559Z,97450.38
2023-12-02T06:33:22.429Z,97432.56
2023-12-02T06:36:26.590Z,97421.50
2023-12-02T06:39:30.653Z,97420.22
2023-12-02T06:42:35.267Z,97431.97
2023-12-02T06:45:41.492Z,97431.13
2023-12-02T06:48:45.447Z,97428.66
2023-12-02T06:51:49.161Z,97427.00
2023-12-02T06:58:00.469Z,97457.88
2023-12-02T07:01:06.754Z,97470.91
2023-12-02T07:04:10.289Z,97474.81
2023-12-02T07:07:14.854Z,97476.97
2023-12-02T07:10:19.443Z,97474.47
2023-12-02T07:13:23.172Z,97485.66
2023-12-02T07:16:28.052Z,97476.91
2023-12-02T07:19:31.873Z,97485.03
2023-12-02T07:22:35.566Z,97490.09
2023-12-02T07:25:39.627Z,97503.81
2023-12-02T07:28:43.180Z,97494.22
2023-12-02T07:31:48.442Z,97487.56
2023-12-02T07:34:52.108Z,97491.84
2023-12-02T07:37:56.042Z,97481.56
2023-12-02T07:40:59.703Z,97488.16
2023-12-02T07:44:03.621Z,97512.56
2023-12-02T07:47:08.733Z,97528.75
2023-12-02T07:50:12.734Z,97526.94
2023-12-02T07:53:16.599Z,97527.44
2023-12-02T07:56:20.602Z,97524.63
2023-12-02T07:59:24.656Z,97530.56
2023-12-02T08:02:30.405Z,97526.56
2023-12-02T08:08:41.510Z,97531.97
2023-12-02T08:11:45.049Z,97539.75
2023-12-02T08:14:48.932Z,97535.91
2023-12-02T08:17:54.164Z,97538.88
2023-12-02T08:20:58.760Z,97543.47
2023-12-02T08:24:02.563Z,97529.88
2023-12-02T08:27:06.890Z,97530.00
2023-12-02T08:30:12.085Z,97516.91
2023-12-02T08:33:17.535Z,97493.41
2023-12-02T08:36:21.230Z,97506.28
2023-12-02T08:39:25.063Z,97520.16
2023-12-02T08:42:28.700Z,97486.38
2023-12-02T08:45:32.841Z,97494.63
2023-12-02T08:48:37.663Z,97530.97
2023-12-02T08:51:41.605Z,97518.34
2023-12-02T08:54:45.061Z,97496.84
2023-12-02T08:57:48.976Z,97504.25
2023-12-02T09:00:53.413Z,97501.44
2023-12-02T09:04:00.307Z,97504.72
2023-12-02T09:07:03.887Z,97496.22
2023-12-02T09:10:10.861Z,97497.72
2023-12-02T09:13:26.600Z,97502.91
2023-12-02T09:16:32.144Z,97505.03
2023-12-02T09:19:58.032Z,97525.19
2023-12-02T09:23:03.745Z,97514.44
2023-12-02T09:26:28.140Z,97514.44
2023-12-02T09:29:36.701Z,97502.69
2023-12-02T09:32:48.334Z,97499.47
2023-12-02T09:35:57.816Z,97497.13
2023-12-02T09:39:35.444Z,97514.84
2023-12-02T09:42:39.925Z,97495.31
2023-12-02T09:46:04.470Z,97496.94
2023-12-02T09:49:57.451Z,97479.41
2023-12-02T09:53:12.272Z,97474.53
2023-12-02T09:56:22.730Z,97517.94
2023-12-02T09:59:38.575Z,97514.03
2023-12-02T10:03:11.066Z,97515.47
2023-12-02T10:06:33.480Z,97488.97
2023-12-02T10:09:54.537Z,97475.81
2023-12-02T10:13:20.552Z,97477.72
2023-12-02T10:16:26.619Z,97490.34
2023-12-02T10:19:38.577Z,97489.34
2023-12-02T10:22:47.470Z,97490.53
2023-12-02T10:26:06.497Z,97491.81
2023-12-02T10:29:24.071Z,97443.88
2023-12-02T10:32:41.096Z,97430.63
2023-12-02T10:35:46.292Z,97438.84
2023-12-02T10:39:13.643Z,97445.53
2023-12-02T10:42:23.626Z,97442.19
2023-12-02T10:45:29.002Z,97432.13
2023-12-02T10:48:33.890Z,97430.13
2023-12-02T10:51:43.112Z,97419.16
2023-12-02T10:54:51.836Z,97428.75
2023-12-02T10:57:59.903Z,97450.84
2023-12-02T11:01:10.741Z,97456.69
2023-12-02T11:04:27.025Z,97468.88
2023-12-02T11:07:34.499Z,97467.88
2023-12-02T11:10:45.534Z,97459.31
2023-12-02T11:13:55.916Z,97439.50
2023-12-02T11:17:18.303Z,97439.22
2023-12-02T11:20:28.063Z,97427.38
2023-12-02T11:24:01.640Z,97428.38
2023-12-02T11:27:20.980Z,97433.41
2023-12-02T11:30:48.996Z,97427.78
2023-12-02T11:34:10.216Z,97445.22
2023-12-02T11:37:29.593Z,97436.03
2023-12-02T11:40:51.252Z,97430.09
2023-12-02T11:44:12.271Z,97440.31
2023-12-02T11:47:34.938Z,97437.84
2023-12-02T11:50:57.935Z,97426.78
2023-12-02T11:54:21.239Z,97449.16
2023-12-02T11:57:38.246Z,97431.81
2023-12-02T12:00:56.479Z,97428.81
2023-12-02T12:04:46.332Z,97420.22
2023-12-02T12:08:05.203Z,97430.81
2023-12-02T12:11:17.871Z,97424.69
2023-12-02T12:14:23.635Z,97427.16
2023-12-02T12:17:27.618Z,97433.28
2023-12-02T12:20:33.436Z,97428.34
2023-12-02T12:23:37.178Z,97408.38
2023-12-02T12:26:40.699Z,97401.44
2023-12-02T12:29:57.020Z,97408.28
2023-12-02T12:33:00.902Z,97421.06
2023-12-02T12:36:07.195Z,97417.34
2023-12-02T12:39:13.074Z,97412.59
2023-12-02T12:42:19.278Z,97406.66
2023-12-02T12:45:24.345Z,97409.88
2023-12-02T12:48:28.688Z,97427.94
2023-12-02T12:51:35.420Z,97420.34
2023-12-02T12:54:48.693Z,97416.41
2023-12-02T12:57:55.795Z,97432.69
2023-12-02T13:01:00.962Z,97419.34
2023-12-02T13:04:11.778Z,97411.69
2023-12-02T13:07:19.260Z,97409.56
2023-12-02T13:10:23.231Z,97421.34
2023-12-02T13:13:33.139Z,97424.97
2023-12-02T13:16:37.164Z,97409.94
2023-12-02T13:19:45.373Z,97398.91
2023-12-02T13:22:54.356Z,97410.84
2023-12-02T13:26:05.038Z,97406.09
2023-12-02T13:29:12.178Z,97410.56
2023-12-02T13:32:17.601Z,97423.13
2023-12-02T13:35:30.057Z,97432.09
2023-12-02T13:38:37.020Z,97439.38
2023-12-02T13:41:48.595Z,97449.97
2023-12-02T13:44:58.155Z,97443.03
2023-12-02T13:48:06.774Z,97424.50
2023-12-02T13:51:24.775Z,97425.16
2023-12-02T13:54:47.120Z,97418.06
2023-12-02T13:58:06.136Z,97440.56
2023-12-02T14:01:19.874Z,97435.44
2023-12-02T14:04:44.396Z,97434.44
2023-12-02T14:07:51.459Z,97427.97
2023-12-02T14:10:57.296Z,97423.50
2023-12-02T14:14:19.363Z,97422.22
2023-12-02T14:17:40.845Z,97432.97
2023-12-02T14:20:58.912Z,97444.56
2023-12-02T14:24:37.646Z,97441.09
2023-12-02T14:28:00.724Z,97458.94
2023-12-02T14:31:37.103Z,97442.47
2023-12-02T14:35:02.340Z,97445.28
2023-12-02T14:38:42.466Z,97447.81
2023-12-02T14:41:50.181Z,97440.22
2023-12-02T14:44:56.840Z,97447.72
2023-12-02T14:48:06.287Z,97468.03
2023-12-02T14:51:11.973Z,97484.53
2023-12-02T14:54:15.987Z,97487.19
2023-12-02T14:57:22.808Z,97489.84
2023-12-02T15:00:28.597Z,97480.06
2023-12-02T15:03:33.507Z,97453.81
2023-12-02T15:06:41.743Z,97430.03
2023-12-02T15:09:46.055Z,97452.34
2023-12-02T15:12:51.646Z,97488.22
2023-12-02T15:15:56.982Z,97479.66
2023-12-02T15:19:10.833Z,97469.06
2023-12-02T15:22:22.823Z,97459.16
2023-12-02T15:25:26.697Z,97459.31
2023-12-02T15:28:50.359Z,97468.81
2023-12-02T15:31:55.617Z,97491.13
2023-12-02T15:35:00.815Z,97517.38
2023-12-02T15:38:04.768Z,97493.59
2023-12-02T15:41:09.722Z,97470.44
2023-12-02T15:44:13.576Z,97456.56
2023-12-02T15:47:18.946Z,97461.38
2023-12-02T15:50:23.035Z,97453.81
2023-12-02T15:53:27.982Z,97430.03
2023-12-02T15:56:33.381Z,97415.16
2023-12-02T15:59:38.580Z,97420.63
2023-12-02T16:02:47.450Z,97410.25
2023-12-02T16:05:52.481Z,97438.66
2023-12-02T16:08:56.441Z,97480.78
2023-12-02T16:12:00.712Z,97494.16
2023-12-02T16:15:06.311Z,97519.44
2023-12-02T16:18:11.932Z,97524.88
2023-12-02T16:21:19.041Z,97518.13
2023-12-02T16:24:23.656Z,97479.13
2023-12-02T16:27:27.845Z,97465.28
2023-12-02T16:30:31.855Z,97501.78
2023-12-02T16:33:37.702Z,97502.13
2023-12-02T16:36:44.121Z,97516.31
2023-12-02T16:39:49.988Z,97530.38
2023-12-02T16:42:53.872Z,97573.47
2023-12-02T16:46:01.009Z,97573.47
2023-12-02T16:49:07.937Z,97542.25
2023-12-02T16:52:16.172Z,97535.97
2023-12-02T16:55:20.775Z,97520.44
2023-12-02T16:58:27.436Z,97515.34
2023-12-02T17:01:37.655Z,97524.44
2023-12-02T17:04:42.927Z,97521.59
2023-12-02T17:07:47.097Z,97488.09
2023-12-02T17:10:56.379Z,97463.69
2023-12-02T17:14:07.417Z,97473.44
2023-12-02T17:17:11.201Z,97476.91
2023-12-02T17:20:17.481Z,97457.75
2023-12-02T17:23:23.459Z,97390.06
2023-12-02T17:26:30.489Z,97410.41
2023-12-02T17:29:36.600Z,97513.31
2023-12-02T17:32:41.542Z,97565.47
2023-12-02T17:35:47.587Z,97582.63
2023-12-02T17:38:53.019Z,97602.63
2023-12-02T17:41:57.134Z,97622.56
2023-12-02T17:45:01.392Z,97632.78
2023-12-02T17:48:06.695Z,97636.09
2023-12-02T17:51:13.670Z,97634.78
2023-12-02T17:54:18.365Z,97625.84
2023-12-02T17:57:22.308Z,97606.53
2023-12-02T18:00:27.256Z,97565.41
2023-12-02T18:03:31.287Z,97514.56
2023-12-02T18:06:36.558Z,97526.13
2023-12-02T18:09:40.579Z,97569.94
2023-12-02T18:12:44.947Z,97562.50
2023-12-02T18:15:48.939Z,97585.63
2023-12-02T18:18:54.330Z,97598.34
2023-12-02T18:22:04.902Z,97609.06
2023-12-02T18:25:09.778Z,97616.00
2023-12-02T18:28:13.960Z,97630.19
2023-12-02T18:31:18.136Z,97652.31
2023-12-02T18:34:21.923Z,97656.78
2023-12-02T18:37:27.721Z,97654.78
2023-12-02T18:40:32.889Z,97652.97
2023-12-02T18:43:36.712Z,97661.72
2023-12-02T18:46:40.689Z,97663.38
2023-12-02T18:49:44.336Z,97651.00
2023-12-02T18:52:49.951Z,97646.69
2023-12-02T18:55:53.563Z,97657.44
2023-12-02T18:58:57.389Z,97663.91
2023-12-02T19:02:01.226Z,97680.75
2023-12-02T19:05:06.350Z,97688.81
2023-12-02T19:08:11.521Z,97705.66
2023-12-02T19:11:15.591Z,97715.06
2023-12-02T19:14:19.688Z,97709.13
2023-12-02T19:17:24.445Z,97714.41
2023-12-02T19:20:28.258Z,97723.00
2023-12-02T19:23:34.005Z,97722.63
2023-12-02T19:26:39.258Z,97728.91
2023-12-02T19:29:43.599Z,97739.66
2023-12-02T19:32:47.650Z,97739.84
2023-12-02T19:35:51.901Z,97754.34
2023-12-02T19:38:56.869Z,97755.81
2023-12-02T19:42:00.759Z,97765.56
2023-12-02T19:45:04.729Z,97760.44
2023-12-02T19:48:09.430Z,97761.25
2023-12-02T19:51:13.636Z,97762.91
2023-12-02T19:54:19.374Z,97765.41
2023-12-02T19:57:25.574Z,97766.22
2023-12-02T20:00:30.152Z,97776.78
2023-12-02T20:03:33.783Z,97773.16
2023-12-02T20:06:38.017Z,97780.09
2023-12-02T20:09:43.206Z,97781.25
2023-12-02T20:12:49.760Z,97791.00
2023-12-02T20:15:54.630Z,97793.78
2023-12-02T20:18:58.910Z,97798.25
2023-12-02T20:22:02.929Z,97792.28
2023-12-02T20:25:09.562Z,97794.13
2023-12-02T20:28:13.292Z,97804.50
2023-12-02T20:31:17.375Z,97812.44
2023-12-02T20:34:21.006Z,97812.13
2023-12-02T20:37:24.876Z,97814.75
2023-12-02T20:40:30.004Z,97820.72
2023-12-02T20:43:34.825Z,97833.91
2023-12-02T20:46:40.679Z,97841.00
2023-12-02T20:49:44.445Z,97836.88
2023-12-02T20:52:49.348Z,97839.84
2023-12-02T20:55:54.825Z,97841.34
2023-12-02T20:58:58.635Z,97850.09
2023-12-02T21:02:03.237Z,97862.00
2023-12-02T21:05:07.768Z,97870.91
2023-12-02T21:08:12.466Z,97873.53
2023-12-02T21:11:17.366Z,97869.56
2023-12-02T21:14:21.984Z,97874.03
2023-12-02T21:17:25.812Z,97877.50
2023-12-02T21:20:29.813Z,97883.91
2023-12-02T21:23:33.622Z,97892.50
2023-12-02T21:26:39.038Z,97900.28
2023-12-02T21:29:43.091Z,97901.94
2023-12-02T21:32:47.318Z,97907.22
2023-12-02T21:35:55.241Z,97903.59
2023-12-02T21:38:59.425Z,97914.16
2023-12-02T21:42:06.377Z,97916.78
2023-12-02T21:45:50.507Z,97921.09
2023-12-02T21:48:58.954Z,97930.66
2023-12-02T21:52:03.202Z,97930.66
2023-12-02T21:55:16.934Z,97934.97
2023-12-02T21:58:22.288Z,97939.09
2023-12-02T22:01:25.982Z,97937.94
2023-12-02T22:04:41.191Z,97942.41
2023-12-02T22:07:44.900Z,97949.50
2023-12-02T22:10:49.089Z,97951.13
2023-12-02T22:13:54.171Z,97957.44
2023-12-02T22:17:01.277Z,97958.44
2023-12-02T22:20:10.660Z,97964.53
2023-12-02T22:23:15.973Z,97967.50
2023-12-02T22:26:19.621Z,97975.41
2023-12-02T22:29:30.314Z,97972.78
2023-12-02T22:32:34.413Z,97985.16
2023-12-02T22:35:41.117Z,97991.44
2023-12-02T22:38:47.319Z,97992.41
2023-12-02T22:41:52.271Z,97993.09
2023-12-02T22:44:57.883Z,97989.25
2023-12-02T22:48:02.316Z,98006.25
2023-12-02T22:51:07.320Z,98004.63
2023-12-02T22:54:11.919Z,98018.81
2023-12-02T22:57:15.778Z,98027.38
2023-12-02T23:00:33.811Z,98023.75
2023-12-02T23:03:41.149Z,98039.59
2023-12-02T23:06:45.480Z,98034.66
2023-12-02T23:09:51.626Z,98038.28
2023-12-02T23:12:58.915Z,98031.66
2023-12-02T23:16:07.650Z,98045.69
2023-12-02T23:19:25.775Z,98036.94
2023-12-02T23:22:29.588Z,98046.69
2023-12-02T23:25:33.632Z,98051.13
2023-12-02T23:28:38.474Z,98059.88
2023-12-02T23:31:45.117Z,98064.84
2023-12-02T23:34:56.002Z,98064.69
2023-12-02T23:38:00.134Z,98063.53
2023-12-02T23:41:04.252Z,98057.44
2023-12-02T23:44:10.897Z,98058.75
2023-12-02T23:47:18.944Z,98059.41
2023-12-02T23:50:24.180Z,98063.72
2023-12-02T23:53:27.822Z,98073.59
2023-12-02T23:56:31.996Z,98069.31
2023-12-02T23:59:35.534Z,98077.22
